Terminal Aerodrome Forecast
Issued by NWS Twin Cities, MN

Home | Current Version | Previous Version | Text Only | Print | Product List | Glossary On
Versions: 1 2 3 4 5 6 7 8 9 10 11 12 13 14 15 16 17 18 19
659
FTUS43 KMPX 121140
TAFEAU
TAF
KEAU 121140Z 1212/1312 31006KT P6SM FEW250
     FM121600 29006KT P6SM BKN080
     FM122100 23005KT P6SM OVC050
     FM130000 15004KT P6SM OVC028
     FM130700 14007KT P6SM OVC045
     FM131100 12006KT 3SM -SN BR OVC020=

USA.gov is the U.S. government's official web portal to all federal, state and local government web resources and services.